sensor_id;sensor_type;location;lat;lon;timestamp;pressure;altitude;pressure_sealevel;temperature;humidity
41062;BME280;26812;42.662;23.352;2022-11-24T00:01:28;93867.53;;;8.24;71.44
41062;BME280;26812;42.662;23.352;2022-11-24T00:03:59;93852.31;;;8.36;71.81
41062;BME280;26812;42.662;23.352;2022-11-24T00:06:25;93822.34;;;8.34;72.04
41062;BME280;26812;42.662;23.352;2022-11-24T00:08:52;93818.13;;;8.25;71.13
41062;BME280;26812;42.662;23.352;2022-11-24T00:11:20;93857.41;;;8.08;72.59
41062;BME280;26812;42.662;23.352;2022-11-24T00:13:47;93848.22;;;8.09;73.17
41062;BME280;26812;42.662;23.352;2022-11-24T00:16:15;93860.38;;;8.36;72.37
41062;BME280;26812;42.662;23.352;2022-11-24T00:18:42;93848.66;;;8.62;71.65
41062;BME280;26812;42.662;23.352;2022-11-24T00:21:08;93856.69;;;8.62;70.89
41062;BME280;26812;42.662;23.352;2022-11-24T00:23:35;93860.56;;;8.52;70.77
41062;BME280;26812;42.662;23.352;2022-11-24T00:26:12;93832.88;;;8.39;71.09
41062;BME280;26812;42.662;23.352;2022-11-24T00:28:38;93853.94;;;8.70;70.88
41062;BME280;26812;42.662;23.352;2022-11-24T00:31:13;93823.06;;;8.77;70.45
41062;BME280;26812;42.662;23.352;2022-11-24T00:33:39;93851.88;;;8.26;71.16
41062;BME280;26812;42.662;23.352;2022-11-24T00:36:05;93866.09;;;8.05;72.46
41062;BME280;26812;42.662;23.352;2022-11-24T00:38:30;93854.59;;;8.05;72.60
41062;BME280;26812;42.662;23.352;2022-11-24T00:40:55;93856.16;;;8.27;72.69
41062;BME280;26812;42.662;23.352;2022-11-24T00:43:21;93824.38;;;8.37;71.41
41062;BME280;26812;42.662;23.352;2022-11-24T00:45:46;93861.16;;;8.58;71.11
41062;BME280;26812;42.662;23.352;2022-11-24T00:48:12;93852.63;;;8.56;70.43
41062;BME280;26812;42.662;23.352;2022-11-24T00:50:37;93866.81;;;8.77;70.21
41062;BME280;26812;42.662;23.352;2022-11-24T00:53:03;93879.59;;;8.80;70.75
41062;BME280;26812;42.662;23.352;2022-11-24T00:55:28;93876.84;;;8.89;70.44
41062;BME280;26812;42.662;23.352;2022-11-24T00:57:53;93872.94;;;8.98;69.73
41062;BME280;26812;42.662;23.352;2022-11-24T01:00:19;93879.56;;;9.01;69.65
41062;BME280;26812;42.662;23.352;2022-11-24T01:02:44;93882.34;;;9.05;69.11
41062;BME280;26812;42.662;23.352;2022-11-24T01:05:10;93881.03;;;9.11;69.20
41062;BME280;26812;42.662;23.352;2022-11-24T01:07:35;93874.28;;;9.05;68.74
41062;BME280;26812;42.662;23.352;2022-11-24T01:10:01;93874.06;;;9.10;68.17
41062;BME280;26812;42.662;23.352;2022-11-24T01:12:26;93856.19;;;8.48;70.52
41062;BME280;26812;42.662;23.352;2022-11-24T01:14:52;93867.44;;;8.41;70.34
41062;BME280;26812;42.662;23.352;2022-11-24T01:17:18;93865.88;;;8.61;70.32
41062;BME280;26812;42.662;23.352;2022-11-24T01:19:43;93867.91;;;8.64;70.31
41062;BME280;26812;42.662;23.352;2022-11-24T01:22:11;93876.72;;;8.64;69.54
41062;BME280;26812;42.662;23.352;2022-11-24T01:24:37;93881.66;;;8.62;70.18
41062;BME280;26812;42.662;23.352;2022-11-24T01:27:02;93833.22;;;7.88;72.17
41062;BME280;26812;42.662;23.352;2022-11-24T01:29:28;93850.97;;;8.22;71.51
41062;BME280;26812;42.662;23.352;2022-11-24T01:31:53;93825.59;;;7.98;72.45
41062;BME280;26812;42.662;23.352;2022-11-24T01:34:18;93848.53;;;8.37;72.25
41062;BME280;26812;42.662;23.352;2022-11-24T01:36:44;93879.63;;;8.59;70.83
41062;BME280;26812;42.662;23.352;2022-11-24T01:39:09;93877.00;;;8.51;71.22
41062;BME280;26812;42.662;23.352;2022-11-24T01:41:35;93888.72;;;8.67;71.19
41062;BME280;26812;42.662;23.352;2022-11-24T01:44:00;93890.06;;;8.73;70.60
41062;BME280;26812;42.662;23.352;2022-11-24T01:46:40;93888.03;;;8.91;69.89
41062;BME280;26812;42.662;23.352;2022-11-24T01:49:13;93884.81;;;8.77;70.08
41062;BME280;26812;42.662;23.352;2022-11-24T01:51:46;93894.13;;;8.79;70.54
41062;BME280;26812;42.662;23.352;2022-11-24T01:54:31;93874.22;;;8.80;70.76
41062;BME280;26812;42.662;23.352;2022-11-24T01:57:06;93875.38;;;8.91;69.98
41062;BME280;26812;42.662;23.352;2022-11-24T01:59:34;93863.66;;;8.96;70.21
41062;BME280;26812;42.662;23.352;2022-11-24T02:02:00;93874.19;;;9.01;70.45
41062;BME280;26812;42.662;23.352;2022-11-24T02:04:29;93867.22;;;9.00;69.77
41062;BME280;26812;42.662;23.352;2022-11-24T02:06:58;93880.44;;;9.05;69.46
41062;BME280;26812;42.662;23.352;2022-11-24T02:11:55;93869.03;;;8.96;69.59
41062;BME280;26812;42.662;23.352;2022-11-24T02:14:23;93843.66;;;8.85;69.75
41062;BME280;26812;42.662;23.352;2022-11-24T02:16:51;93873.84;;;9.02;69.32
41062;BME280;26812;42.662;23.352;2022-11-24T02:22:03;93881.25;;;9.06;69.67
41062;BME280;26812;42.662;23.352;2022-11-24T02:24:42;93883.03;;;9.01;69.46
41062;BME280;26812;42.662;23.352;2022-11-24T02:27:11;93893.56;;;9.07;69.72
41062;BME280;26812;42.662;23.352;2022-11-24T02:29:37;93886.50;;;9.02;70.05
41062;BME280;26812;42.662;23.352;2022-11-24T02:32:05;93895.47;;;9.18;69.43
41062;BME280;26812;42.662;23.352;2022-11-24T02:34:31;93881.94;;;9.15;69.22
41062;BME280;26812;42.662;23.352;2022-11-24T02:36:57;93888.41;;;9.14;69.59
41062;BME280;26812;42.662;23.352;2022-11-24T02:39:22;93884.81;;;9.10;69.56
41062;BME280;26812;42.662;23.352;2022-11-24T02:41:53;93888.53;;;9.17;68.74
41062;BME280;26812;42.662;23.352;2022-11-24T02:44:24;93889.19;;;9.14;69.33
41062;BME280;26812;42.662;23.352;2022-11-24T02:47:07;93896.41;;;9.22;68.81
41062;BME280;26812;42.662;23.352;2022-11-24T02:49:33;93893.75;;;9.01;69.01
41062;BME280;26812;42.662;23.352;2022-11-24T02:51:59;93886.72;;;8.76;70.36
41062;BME280;26812;42.662;23.352;2022-11-24T02:54:24;93901.19;;;8.84;70.23
41062;BME280;26812;42.662;23.352;2022-11-24T02:56:50;93883.38;;;8.79;70.03
41062;BME280;26812;42.662;23.352;2022-11-24T02:59:15;93872.06;;;8.74;69.48
41062;BME280;26812;42.662;23.352;2022-11-24T03:01:41;93885.94;;;8.76;70.01
41062;BME280;26812;42.662;23.352;2022-11-24T03:04:06;93870.28;;;8.78;69.33
41062;BME280;26812;42.662;23.352;2022-11-24T03:06:32;93881.66;;;8.95;69.37
41062;BME280;26812;42.662;23.352;2022-11-24T03:08:57;93890.75;;;9.03;68.50
41062;BME280;26812;42.662;23.352;2022-11-24T03:11:22;93879.81;;;8.54;69.55
41062;BME280;26812;42.662;23.352;2022-11-24T03:13:48;93895.13;;;8.54;70.93
41062;BME280;26812;42.662;23.352;2022-11-24T03:16:14;93891.06;;;8.48;70.82
41062;BME280;26812;42.662;23.352;2022-11-24T03:18:39;93899.66;;;8.62;71.31
41062;BME280;26812;42.662;23.352;2022-11-24T03:21:04;93901.72;;;8.77;70.18
41062;BME280;26812;42.662;23.352;2022-11-24T03:23:30;93859.09;;;8.55;69.83
41062;BME280;26812;42.662;23.352;2022-11-24T03:26:12;93903.50;;;8.94;69.81
41062;BME280;26812;42.662;23.352;2022-11-24T03:28:38;93913.16;;;9.07;69.40
41062;BME280;26812;42.662;23.352;2022-11-24T03:31:05;93924.91;;;9.15;69.77
41062;BME280;26812;42.662;23.352;2022-11-24T03:33:31;93915.75;;;9.16;69.48
41062;BME280;26812;42.662;23.352;2022-11-24T03:35:56;93926.91;;;9.06;70.16
41062;BME280;26812;42.662;23.352;2022-11-24T03:38:21;93915.47;;;8.96;70.12
41062;BME280;26812;42.662;23.352;2022-11-24T03:40:47;93921.66;;;9.09;69.90
41062;BME280;26812;42.662;23.352;2022-11-24T03:43:13;93911.69;;;9.10;69.34
41062;BME280;26812;42.662;23.352;2022-11-24T03:45:38;93940.47;;;9.09;69.67
41062;BME280;26812;42.662;23.352;2022-11-24T03:48:05;93937.31;;;9.07;69.82
41062;BME280;26812;42.662;23.352;2022-11-24T03:50:30;93923.84;;;8.95;70.07
41062;BME280;26812;42.662;23.352;2022-11-24T03:52:56;93947.72;;;8.96;70.47
41062;BME280;26812;42.662;23.352;2022-11-24T03:55:21;93938.28;;;8.90;70.33
41062;BME280;26812;42.662;23.352;2022-11-24T03:57:47;93944.91;;;8.93;70.95
41062;BME280;26812;42.662;23.352;2022-11-24T04:00:12;93944.22;;;8.96;70.78
41062;BME280;26812;42.662;23.352;2022-11-24T04:02:38;93943.03;;;9.06;70.55
41062;BME280;26812;42.662;23.352;2022-11-24T04:05:04;93938.34;;;9.15;69.41
41062;BME280;26812;42.662;23.352;2022-11-24T04:07:29;93928.59;;;9.10;69.36
41062;BME280;26812;42.662;23.352;2022-11-24T04:09:55;93961.16;;;9.29;69.04
41062;BME280;26812;42.662;23.352;2022-11-24T04:12:20;93947.81;;;9.21;68.71
41062;BME280;26812;42.662;23.352;2022-11-24T04:15:04;93963.72;;;9.26;69.15
41062;BME280;26812;42.662;23.352;2022-11-24T04:17:30;93975.31;;;9.18;69.13
41062;BME280;26812;42.662;23.352;2022-11-24T04:19:55;93965.44;;;9.10;69.49
41062;BME280;26812;42.662;23.352;2022-11-24T04:22:21;93965.50;;;9.22;69.47
41062;BME280;26812;42.662;23.352;2022-11-24T04:24:46;93957.00;;;9.20;69.64
41062;BME280;26812;42.662;23.352;2022-11-24T04:27:11;93964.06;;;9.24;70.06
41062;BME280;26812;42.662;23.352;2022-11-24T04:29:37;93979.19;;;9.29;69.89
41062;BME280;26812;42.662;23.352;2022-11-24T04:32:02;93974.34;;;9.22;69.23
41062;BME280;26812;42.662;23.352;2022-11-24T04:34:28;93979.50;;;8.94;69.98
41062;BME280;26812;42.662;23.352;2022-11-24T04:36:53;93965.84;;;8.79;70.38
41062;BME280;26812;42.662;23.352;2022-11-24T04:39:19;93965.31;;;8.85;70.86
41062;BME280;26812;42.662;23.352;2022-11-24T04:41:46;93981.97;;;8.99;70.92
41062;BME280;26812;42.662;23.352;2022-11-24T04:44:11;93966.09;;;8.86;70.65
41062;BME280;26812;42.662;23.352;2022-11-24T04:46:36;93986.44;;;8.95;70.76
41062;BME280;26812;42.662;23.352;2022-11-24T04:49:02;93987.25;;;8.87;71.06
41062;BME280;26812;42.662;23.352;2022-11-24T04:51:27;93993.59;;;8.91;70.46
41062;BME280;26812;42.662;23.352;2022-11-24T04:53:53;93968.03;;;8.64;71.00
41062;BME280;26812;42.662;23.352;2022-11-24T04:56:18;93986.22;;;8.80;71.45
41062;BME280;26812;42.662;23.352;2022-11-24T04:58:47;93988.66;;;8.93;71.22
41062;BME280;26812;42.662;23.352;2022-11-24T05:01:13;93992.91;;;8.94;71.13
41062;BME280;26812;42.662;23.352;2022-11-24T05:03:38;93997.94;;;9.17;70.63
41062;BME280;26812;42.662;23.352;2022-11-24T05:06:10;93999.31;;;9.23;70.04
41062;BME280;26812;42.662;23.352;2022-11-24T05:08:36;93987.72;;;9.10;69.82
41062;BME280;26812;42.662;23.352;2022-11-24T05:11:05;93999.66;;;9.21;70.45
41062;BME280;26812;42.662;23.352;2022-11-24T05:13:31;93980.44;;;9.11;69.76
41062;BME280;26812;42.662;23.352;2022-11-24T05:15:57;93998.88;;;9.21;69.87
41062;BME280;26812;42.662;23.352;2022-11-24T05:18:24;94012.59;;;9.40;69.83
41062;BME280;26812;42.662;23.352;2022-11-24T05:20:49;94003.19;;;9.46;69.62
41062;BME280;26812;42.662;23.352;2022-11-24T05:23:15;93991.13;;;9.52;69.17
41062;BME280;26812;42.662;23.352;2022-11-24T05:25:40;94014.34;;;9.57;69.04
41062;BME280;26812;42.662;23.352;2022-11-24T05:28:07;94004.44;;;9.49;69.03
41062;BME280;26812;42.662;23.352;2022-11-24T05:30:38;94017.31;;;9.43;69.21
41062;BME280;26812;42.662;23.352;2022-11-24T05:33:13;94018.09;;;9.44;69.35
41062;BME280;26812;42.662;23.352;2022-11-24T05:35:46;94009.25;;;9.43;69.57
41062;BME280;26812;42.662;23.352;2022-11-24T05:38:13;94021.84;;;9.51;69.63
41062;BME280;26812;42.662;23.352;2022-11-24T05:40:39;94014.38;;;9.36;70.06
41062;BME280;26812;42.662;23.352;2022-11-24T05:43:10;94012.13;;;9.38;70.01
41062;BME280;26812;42.662;23.352;2022-11-24T05:45:36;94014.63;;;9.43;69.29
41062;BME280;26812;42.662;23.352;2022-11-24T05:48:11;94028.72;;;9.40;70.13
41062;BME280;26812;42.662;23.352;2022-11-24T05:50:37;94027.69;;;9.32;70.41
41062;BME280;26812;42.662;23.352;2022-11-24T05:53:07;94034.31;;;9.35;70.36
41062;BME280;26812;42.662;23.352;2022-11-24T05:55:33;94010.22;;;9.39;69.53
41062;BME280;26812;42.662;23.352;2022-11-24T05:58:00;94008.66;;;9.38;69.52
41062;BME280;26812;42.662;23.352;2022-11-24T06:00:27;94031.81;;;9.51;69.36
41062;BME280;26812;42.662;23.352;2022-11-24T06:02:53;94041.44;;;9.52;69.67
41062;BME280;26812;42.662;23.352;2022-11-24T06:05:18;94023.41;;;9.52;69.11
41062;BME280;26812;42.662;23.352;2022-11-24T06:07:44;94029.56;;;9.53;69.62
41062;BME280;26812;42.662;23.352;2022-11-24T06:10:09;94046.50;;;9.53;69.48
41062;BME280;26812;42.662;23.352;2022-11-24T06:12:35;94043.06;;;9.44;69.89
41062;BME280;26812;42.662;23.352;2022-11-24T06:15:01;94055.13;;;9.59;69.59
41062;BME280;26812;42.662;23.352;2022-11-24T06:17:27;94045.72;;;9.65;69.38
41062;BME280;26812;42.662;23.352;2022-11-24T06:19:52;94048.97;;;9.58;69.40
41062;BME280;26812;42.662;23.352;2022-11-24T06:22:18;94046.97;;;9.68;69.23
41062;BME280;26812;42.662;23.352;2022-11-24T06:24:44;94041.22;;;9.57;69.55
41062;BME280;26812;42.662;23.352;2022-11-24T06:27:10;94048.13;;;9.79;69.06
41062;BME280;26812;42.662;23.352;2022-11-24T06:29:36;94043.22;;;9.81;68.73
41062;BME280;26812;42.662;23.352;2022-11-24T06:32:02;94064.09;;;10.08;68.18
41062;BME280;26812;42.662;23.352;2022-11-24T06:34:27;94061.56;;;10.12;68.13
41062;BME280;26812;42.662;23.352;2022-11-24T06:36:53;94034.16;;;9.98;68.23
41062;BME280;26812;42.662;23.352;2022-11-24T06:39:18;94055.50;;;10.15;67.72
41062;BME280;26812;42.662;23.352;2022-11-24T06:41:43;94065.41;;;10.23;67.64
41062;BME280;26812;42.662;23.352;2022-11-24T06:44:09;94060.38;;;10.21;67.59
41062;BME280;26812;42.662;23.352;2022-11-24T06:46:34;94086.94;;;10.23;68.39
41062;BME280;26812;42.662;23.352;2022-11-24T06:49:00;94090.31;;;10.32;68.28
41062;BME280;26812;42.662;23.352;2022-11-24T06:51:26;94086.84;;;10.32;68.00
41062;BME280;26812;42.662;23.352;2022-11-24T06:53:52;94111.91;;;10.56;67.63
41062;BME280;26812;42.662;23.352;2022-11-24T06:56:18;94106.06;;;10.54;67.35
41062;BME280;26812;42.662;23.352;2022-11-24T06:58:46;94115.38;;;10.69;66.55
41062;BME280;26812;42.662;23.352;2022-11-24T07:01:20;94122.03;;;10.72;66.44
41062;BME280;26812;42.662;23.352;2022-11-24T07:03:47;94124.38;;;10.73;66.17
41062;BME280;26812;42.662;23.352;2022-11-24T07:06:13;94125.16;;;10.74;65.63
41062;BME280;26812;42.662;23.352;2022-11-24T07:08:39;94117.16;;;10.65;65.33
41062;BME280;26812;42.662;23.352;2022-11-24T07:11:10;94142.53;;;10.64;65.44
41062;BME280;26812;42.662;23.352;2022-11-24T07:13:36;94137.16;;;10.52;65.71
41062;BME280;26812;42.662;23.352;2022-11-24T07:16:15;94141.53;;;10.56;65.65
41062;BME280;26812;42.662;23.352;2022-11-24T07:18:42;94151.16;;;10.45;65.70
41062;BME280;26812;42.662;23.352;2022-11-24T07:21:08;94143.53;;;10.47;65.96
41062;BME280;26812;42.662;23.352;2022-11-24T07:23:34;94146.91;;;10.44;66.39
41062;BME280;26812;42.662;23.352;2022-11-24T07:26:03;94147.69;;;10.45;66.33
41062;BME280;26812;42.662;23.352;2022-11-24T07:28:29;94132.38;;;10.37;66.34
41062;BME280;26812;42.662;23.352;2022-11-24T07:30:55;94145.31;;;10.43;66.49
41062;BME280;26812;42.662;23.352;2022-11-24T07:33:20;94147.00;;;10.48;66.51
41062;BME280;26812;42.662;23.352;2022-11-24T07:35:50;94146.44;;;10.42;65.53
41062;BME280;26812;42.662;23.352;2022-11-24T07:38:16;94163.34;;;10.31;66.37
41062;BME280;26812;42.662;23.352;2022-11-24T07:40:41;94164.03;;;10.40;65.97
41062;BME280;26812;42.662;23.352;2022-11-24T07:43:06;94161.22;;;10.36;65.72
41062;BME280;26812;42.662;23.352;2022-11-24T07:45:32;94167.81;;;10.26;66.26
41062;BME280;26812;42.662;23.352;2022-11-24T07:47:57;94148.97;;;10.26;66.33
41062;BME280;26812;42.662;23.352;2022-11-24T07:50:23;94170.50;;;10.26;66.55
41062;BME280;26812;42.662;23.352;2022-11-24T07:52:48;94182.84;;;10.07;66.69
41062;BME280;26812;42.662;23.352;2022-11-24T07:55:14;94175.81;;;9.81;67.53
41062;BME280;26812;42.662;23.352;2022-11-24T07:57:39;94191.19;;;9.81;68.05
41062;BME280;26812;42.662;23.352;2022-11-24T08:00:05;94193.59;;;9.74;68.21
41062;BME280;26812;42.662;23.352;2022-11-24T08:02:32;94191.44;;;9.88;69.16
41062;BME280;26812;42.662;23.352;2022-11-24T08:04:57;94169.03;;;9.75;68.23
41062;BME280;26812;42.662;23.352;2022-11-24T08:07:23;94180.41;;;9.81;68.01
41062;BME280;26812;42.662;23.352;2022-11-24T08:09:48;94210.97;;;9.97;67.33
41062;BME280;26812;42.662;23.352;2022-11-24T08:12:15;94216.34;;;9.97;68.35
41062;BME280;26812;42.662;23.352;2022-11-24T08:14:41;94213.47;;;10.02;67.70
41062;BME280;26812;42.662;23.352;2022-11-24T08:17:07;94201.53;;;9.91;67.86
41062;BME280;26812;42.662;23.352;2022-11-24T08:19:32;94221.03;;;9.88;67.46
41062;BME280;26812;42.662;23.352;2022-11-24T08:21:59;94218.00;;;9.69;67.96
41062;BME280;26812;42.662;23.352;2022-11-24T08:24:26;94225.16;;;9.35;68.43
41062;BME280;26812;42.662;23.352;2022-11-24T08:26:51;94222.53;;;9.26;68.74
41062;BME280;26812;42.662;23.352;2022-11-24T08:29:16;94233.63;;;9.25;68.85
41062;BME280;26812;42.662;23.352;2022-11-24T08:31:42;94231.47;;;9.10;69.74
41062;BME280;26812;42.662;23.352;2022-11-24T08:34:08;94207.84;;;8.94;68.52
41062;BME280;26812;42.662;23.352;2022-11-24T08:36:34;94230.03;;;9.12;69.75
41062;BME280;26812;42.662;23.352;2022-11-24T08:39:00;94234.09;;;9.18;68.55
41062;BME280;26812;42.662;23.352;2022-11-24T08:41:26;94233.88;;;9.02;68.92
41062;BME280;26812;42.662;23.352;2022-11-24T08:43:53;94241.13;;;9.02;68.78
41062;BME280;26812;42.662;23.352;2022-11-24T08:46:18;94247.69;;;9.22;68.99
41062;BME280;26812;42.662;23.352;2022-11-24T08:48:49;94254.53;;;9.11;68.44
41062;BME280;26812;42.662;23.352;2022-11-24T08:51:17;94254.94;;;8.92;68.72
41062;BME280;26812;42.662;23.352;2022-11-24T08:53:43;94262.06;;;8.79;68.85
41062;BME280;26812;42.662;23.352;2022-11-24T08:56:10;94267.63;;;8.74;68.38
41062;BME280;26812;42.662;23.352;2022-11-24T08:58:37;94258.66;;;8.61;68.63
41062;BME280;26812;42.662;23.352;2022-11-24T09:01:09;94275.53;;;8.70;69.36
41062;BME280;26812;42.662;23.352;2022-11-24T09:03:35;94274.13;;;8.64;69.50
41062;BME280;26812;42.662;23.352;2022-11-24T09:06:03;94281.84;;;8.75;69.44
41062;BME280;26812;42.662;23.352;2022-11-24T09:08:29;94279.19;;;8.66;69.33
41062;BME280;26812;42.662;23.352;2022-11-24T09:10:59;94284.50;;;8.83;69.06
41062;BME280;26812;42.662;23.352;2022-11-24T09:13:25;94276.44;;;8.83;68.91
41062;BME280;26812;42.662;23.352;2022-11-24T09:15:50;94280.16;;;8.61;69.37
41062;BME280;26812;42.662;23.352;2022-11-24T09:18:15;94260.41;;;8.57;68.85
41062;BME280;26812;42.662;23.352;2022-11-24T09:20:41;94285.50;;;8.61;68.91
41062;BME280;26812;42.662;23.352;2022-11-24T09:23:06;94265.75;;;8.66;69.06
41062;BME280;26812;42.662;23.352;2022-11-24T09:25:32;94263.84;;;8.66;67.35
41062;BME280;26812;42.662;23.352;2022-11-24T09:27:57;94271.41;;;8.73;67.30
41062;BME280;26812;42.662;23.352;2022-11-24T09:30:24;94284.03;;;8.90;66.99
41062;BME280;26812;42.662;23.352;2022-11-24T09:32:49;94267.25;;;8.93;67.28
41062;BME280;26812;42.662;23.352;2022-11-24T09:35:15;94274.16;;;9.02;66.75
41062;BME280;26812;42.662;23.352;2022-11-24T09:37:40;94285.16;;;9.27;65.27
41062;BME280;26812;42.662;23.352;2022-11-24T09:40:11;94291.59;;;9.34;64.78
41062;BME280;26812;42.662;23.352;2022-11-24T09:42:58;94289.41;;;9.28;63.64
41062;BME280;26812;42.662;23.352;2022-11-24T09:45:39;94282.09;;;9.37;64.21
41062;BME280;26812;42.662;23.352;2022-11-24T09:48:20;94291.06;;;9.41;64.20
41062;BME280;26812;42.662;23.352;2022-11-24T09:50:48;94278.56;;;9.07;63.11
41062;BME280;26812;42.662;23.352;2022-11-24T09:58:47;94291.28;;;8.81;63.74
41062;BME280;26812;42.662;23.352;2022-11-24T10:01:17;94286.25;;;8.79;63.56
41062;BME280;26812;42.662;23.352;2022-11-24T10:03:46;94298.38;;;8.85;62.83
41062;BME280;26812;42.662;23.352;2022-11-24T10:06:21;94291.59;;;8.96;63.56
41062;BME280;26812;42.662;23.352;2022-11-24T10:27:46;94301.75;;;8.74;62.36
41062;BME280;26812;42.662;23.352;2022-11-24T10:30:17;94316.09;;;8.86;61.00
41062;BME280;26812;42.662;23.352;2022-11-24T10:32:46;94287.91;;;8.46;61.10
41062;BME280;26812;42.662;23.352;2022-11-24T10:35:20;94294.50;;;8.57;62.04
41062;BME280;26812;42.662;23.352;2022-11-24T10:40:32;94302.25;;;8.58;62.87
41062;BME280;26812;42.662;23.352;2022-11-24T10:42:59;94295.31;;;8.40;61.53
41062;BME280;26812;42.662;23.352;2022-11-24T10:45:26;94294.22;;;8.32;62.38
41062;BME280;26812;42.662;23.352;2022-11-24T10:47:52;94294.19;;;8.50;62.04
41062;BME280;26812;42.662;23.352;2022-11-24T10:50:30;94294.47;;;8.74;61.50
41062;BME280;26812;42.662;23.352;2022-11-24T10:55:25;94306.22;;;8.44;61.33
41062;BME280;26812;42.662;23.352;2022-11-24T10:57:50;94292.47;;;8.19;60.92
41062;BME280;26812;42.662;23.352;2022-11-24T11:02:45;94306.53;;;8.42;61.60
41062;BME280;26812;42.662;23.352;2022-11-24T11:05:37;94304.31;;;8.53;60.65
41062;BME280;26812;42.662;23.352;2022-11-24T11:10:39;94291.13;;;8.86;60.58
41062;BME280;26812;42.662;23.352;2022-11-24T11:13:29;94310.56;;;8.91;59.81
41062;BME280;26812;42.662;23.352;2022-11-24T11:15:56;94299.09;;;8.65;59.18
41062;BME280;26812;42.662;23.352;2022-11-24T11:18:28;94306.34;;;8.64;60.19
41062;BME280;26812;42.662;23.352;2022-11-24T11:20:56;94303.97;;;8.54;60.25
41062;BME280;26812;42.662;23.352;2022-11-24T11:23:26;94277.59;;;8.56;61.52
41062;BME280;26812;42.662;23.352;2022-11-24T11:29:13;94315.59;;;9.01;59.77
41062;BME280;26812;42.662;23.352;2022-11-24T11:31:39;94291.13;;;8.86;59.86
41062;BME280;26812;42.662;23.352;2022-11-24T11:36:34;94322.06;;;9.00;58.63
41062;BME280;26812;42.662;23.352;2022-11-24T11:39:02;94314.69;;;8.80;59.23
41062;BME280;26812;42.662;23.352;2022-11-24T11:41:39;94320.34;;;8.87;59.27
41062;BME280;26812;42.662;23.352;2022-11-24T11:44:28;94327.47;;;8.83;58.83
41062;BME280;26812;42.662;23.352;2022-11-24T11:46:57;94308.19;;;8.81;59.25
41062;BME280;26812;42.662;23.352;2022-11-24T11:49:23;94313.31;;;8.65;59.50
41062;BME280;26812;42.662;23.352;2022-11-24T11:52:07;94332.56;;;8.67;59.19
41062;BME280;26812;42.662;23.352;2022-11-24T12:00:45;94333.50;;;8.71;59.45
41062;BME280;26812;42.662;23.352;2022-11-24T12:13:34;94343.94;;;8.73;59.18
41062;BME280;26812;42.662;23.352;2022-11-24T12:25:16;94348.19;;;8.91;57.69
41062;BME280;26812;42.662;23.352;2022-11-24T12:30:15;94309.47;;;8.75;56.86
41062;BME280;26812;42.662;23.352;2022-11-24T12:33:05;94346.06;;;9.06;56.94
41062;BME280;26812;42.662;23.352;2022-11-24T12:35:39;94343.53;;;9.09;56.91
41062;BME280;26812;42.662;23.352;2022-11-24T12:40:57;94340.38;;;9.54;54.75
41062;BME280;26812;42.662;23.352;2022-11-24T12:43:35;94357.75;;;9.56;53.79
41062;BME280;26812;42.662;23.352;2022-11-24T12:49:36;94346.81;;;9.61;53.14
41062;BME280;26812;42.662;23.352;2022-11-24T12:52:18;94350.94;;;9.59;54.36
41062;BME280;26812;42.662;23.352;2022-11-24T12:54:45;94340.59;;;9.70;52.74
41062;BME280;26812;42.662;23.352;2022-11-24T12:57:16;94353.13;;;10.24;52.62
41062;BME280;26812;42.662;23.352;2022-11-24T13:00:02;94329.84;;;10.82;49.57
41062;BME280;26812;42.662;23.352;2022-11-24T13:05:39;94344.38;;;11.02;48.76
41062;BME280;26812;42.662;23.352;2022-11-24T13:08:06;94344.91;;;10.63;49.05
41062;BME280;26812;42.662;23.352;2022-11-24T13:10:38;94348.00;;;10.52;50.80
41062;BME280;26812;42.662;23.352;2022-11-24T13:13:11;94350.84;;;10.89;49.25
41062;BME280;26812;42.662;23.352;2022-11-24T13:42:20;94359.56;;;8.80;53.87
41062;BME280;26812;42.662;23.352;2022-11-24T13:44:53;94379.94;;;8.81;53.80
41062;BME280;26812;42.662;23.352;2022-11-24T13:49:53;94359.44;;;8.59;54.28
41062;BME280;26812;42.662;23.352;2022-11-24T14:00:35;94374.91;;;8.70;54.91
41062;BME280;26812;42.662;23.352;2022-11-24T14:03:31;94375.38;;;8.47;54.55
41062;BME280;26812;42.662;23.352;2022-11-24T14:05:59;94370.66;;;8.44;54.24
41062;BME280;26812;42.662;23.352;2022-11-24T14:08:29;94376.47;;;8.46;55.06
41062;BME280;26812;42.662;23.352;2022-11-24T14:10:57;94375.50;;;8.33;54.39
41062;BME280;26812;42.662;23.352;2022-11-24T14:13:27;94376.81;;;8.35;55.29
41062;BME280;26812;42.662;23.352;2022-11-24T14:18:41;94381.63;;;7.99;56.22
41062;BME280;26812;42.662;23.352;2022-11-24T14:21:29;94397.09;;;8.02;56.72
41062;BME280;26812;42.662;23.352;2022-11-24T14:26:45;94391.84;;;7.88;57.02
41062;BME280;26812;42.662;23.352;2022-11-24T14:29:15;94393.25;;;7.77;56.65
41062;BME280;26812;42.662;23.352;2022-11-24T14:31:42;94399.25;;;7.83;56.79
41062;BME280;26812;42.662;23.352;2022-11-24T14:34:20;94402.69;;;7.74;57.01
41062;BME280;26812;42.662;23.352;2022-11-24T14:36:50;94387.56;;;7.70;56.19
41062;BME280;26812;42.662;23.352;2022-11-24T14:39:18;94388.19;;;7.67;55.78
41062;BME280;26812;42.662;23.352;2022-11-24T14:42:23;94401.59;;;7.75;56.69
41062;BME280;26812;42.662;23.352;2022-11-24T14:44:57;94397.25;;;7.97;55.72
41062;BME280;26812;42.662;23.352;2022-11-24T14:47:27;94403.22;;;7.94;55.85
41062;BME280;26812;42.662;23.352;2022-11-24T14:49:55;94395.78;;;7.91;55.34
41062;BME280;26812;42.662;23.352;2022-11-24T14:52:22;94396.63;;;8.00;55.87
41062;BME280;26812;42.662;23.352;2022-11-24T14:57:34;94388.91;;;8.16;54.97
41062;BME280;26812;42.662;23.352;2022-11-24T15:00:27;94397.44;;;8.26;55.25
41062;BME280;26812;42.662;23.352;2022-11-24T15:03:06;94395.41;;;8.32;54.32
41062;BME280;26812;42.662;23.352;2022-11-24T15:05:56;94393.47;;;8.24;54.86
41062;BME280;26812;42.662;23.352;2022-11-24T15:08:24;94407.25;;;8.31;54.21
41062;BME280;26812;42.662;23.352;2022-11-24T15:11:01;94404.88;;;8.29;55.41
41062;BME280;26812;42.662;23.352;2022-11-24T15:13:31;94410.06;;;8.17;55.18
41062;BME280;26812;42.662;23.352;2022-11-24T15:16:21;94414.00;;;8.20;55.14